sensor_id;sensor_type;location;lat;lon;timestamp;P1;durP1;ratioP1;P2;durP2;ratioP2
30763;SDS011;17497;51.476;7.770;2023-06-22T00:00:00;0.20;;;0.20;;
30763;SDS011;17497;51.476;7.770;2023-06-22T00:02:27;0.20;;;0.20;;
30763;SDS011;17497;51.476;7.770;2023-06-22T00:04:54;0.30;;;0.30;;
30763;SDS011;17497;51.476;7.770;2023-06-22T00:07:21;0.30;;;0.30;;
30763;SDS011;17497;51.476;7.770;2023-06-22T00:09:48;0.30;;;0.30;;
30763;SDS011;17497;51.476;7.770;2023-06-22T00:12:14;0.30;;;0.30;;
30763;SDS011;17497;51.476;7.770;2023-06-22T00:14:41;0.30;;;0.30;;
30763;SDS011;17497;51.476;7.770;2023-06-22T00:17:08;0.30;;;0.30;;
30763;SDS011;17497;51.476;7.770;2023-06-22T00:19:35;0.30;;;0.30;;
30763;SDS011;17497;51.476;7.770;2023-06-22T00:22:02;0.30;;;0.30;;
30763;SDS011;17497;51.476;7.770;2023-06-22T00:26:56;0.25;;;0.25;;
30763;SDS011;17497;51.476;7.770;2023-06-22T00:29:23;0.30;;;0.30;;
30763;SDS011;17497;51.476;7.770;2023-06-22T00:31:51;0.30;;;0.30;;
30763;SDS011;17497;51.476;7.770;2023-06-22T00:34:18;0.30;;;0.30;;
30763;SDS011;17497;51.476;7.770;2023-06-22T00:36:44;0.30;;;0.30;;
30763;SDS011;17497;51.476;7.770;2023-06-22T00:39:12;0.20;;;0.20;;
30763;SDS011;17497;51.476;7.770;2023-06-22T00:41:39;0.22;;;0.22;;
30763;SDS011;17497;51.476;7.770;2023-06-22T00:44:06;0.30;;;0.30;;
30763;SDS011;17497;51.476;7.770;2023-06-22T00:46:34;0.20;;;0.20;;
30763;SDS011;17497;51.476;7.770;2023-06-22T00:49:01;0.20;;;0.20;;
30763;SDS011;17497;51.476;7.770;2023-06-22T00:51:31;0.28;;;0.28;;
30763;SDS011;17497;51.476;7.770;2023-06-22T00:53:58;0.20;;;0.20;;
30763;SDS011;17497;51.476;7.770;2023-06-22T00:56:25;0.30;;;0.30;;
30763;SDS011;17497;51.476;7.770;2023-06-22T00:58:56;0.30;;;0.30;;
30763;SDS011;17497;51.476;7.770;2023-06-22T01:01:25;0.30;;;0.30;;
30763;SDS011;17497;51.476;7.770;2023-06-22T01:03:52;0.30;;;0.30;;
30763;SDS011;17497;51.476;7.770;2023-06-22T01:06:21;0.30;;;0.30;;
30763;SDS011;17497;51.476;7.770;2023-06-22T01:08:59;0.20;;;0.20;;
30763;SDS011;17497;51.476;7.770;2023-06-22T01:11:33;0.30;;;0.30;;
30763;SDS011;17497;51.476;7.770;2023-06-22T01:17:18;0.30;;;0.30;;
30763;SDS011;17497;51.476;7.770;2023-06-22T01:19:48;0.30;;;0.30;;
30763;SDS011;17497;51.476;7.770;2023-06-22T01:22:22;0.30;;;0.30;;
30763;SDS011;17497;51.476;7.770;2023-06-22T01:25:06;0.20;;;0.20;;
30763;SDS011;17497;51.476;7.770;2023-06-22T01:30:27;0.30;;;0.30;;
30763;SDS011;17497;51.476;7.770;2023-06-22T01:32:56;0.20;;;0.20;;
30763;SDS011;17497;51.476;7.770;2023-06-22T01:37:51;0.30;;;0.30;;
30763;SDS011;17497;51.476;7.770;2023-06-22T01:40:18;0.30;;;0.30;;
30763;SDS011;17497;51.476;7.770;2023-06-22T01:42:47;0.30;;;0.30;;
30763;SDS011;17497;51.476;7.770;2023-06-22T01:45:16;0.30;;;0.30;;
30763;SDS011;17497;51.476;7.770;2023-06-22T01:47:44;0.20;;;0.20;;
30763;SDS011;17497;51.476;7.770;2023-06-22T01:50:11;0.30;;;0.30;;
30763;SDS011;17497;51.476;7.770;2023-06-22T01:52:38;0.22;;;0.22;;
30763;SDS011;17497;51.476;7.770;2023-06-22T01:55:05;0.20;;;0.20;;
30763;SDS011;17497;51.476;7.770;2023-06-22T01:57:34;0.30;;;0.30;;
30763;SDS011;17497;51.476;7.770;2023-06-22T02:02:32;0.20;;;0.20;;
30763;SDS011;17497;51.476;7.770;2023-06-22T02:05:06;0.30;;;0.30;;
30763;SDS011;17497;51.476;7.770;2023-06-22T02:07:39;0.30;;;0.30;;
30763;SDS011;17497;51.476;7.770;2023-06-22T02:10:10;0.28;;;0.28;;
30763;SDS011;17497;51.476;7.770;2023-06-22T02:12:42;0.30;;;0.30;;
30763;SDS011;17497;51.476;7.770;2023-06-22T02:15:10;0.30;;;0.30;;
30763;SDS011;17497;51.476;7.770;2023-06-22T02:17:39;0.30;;;0.30;;
30763;SDS011;17497;51.476;7.770;2023-06-22T02:20:12;0.28;;;0.28;;
30763;SDS011;17497;51.476;7.770;2023-06-22T02:22:40;0.20;;;0.20;;
30763;SDS011;17497;51.476;7.770;2023-06-22T02:25:07;0.20;;;0.20;;
30763;SDS011;17497;51.476;7.770;2023-06-22T02:27:34;0.30;;;0.30;;
30763;SDS011;17497;51.476;7.770;2023-06-22T02:30:01;0.20;;;0.20;;
30763;SDS011;17497;51.476;7.770;2023-06-22T02:32:28;0.30;;;0.30;;
30763;SDS011;17497;51.476;7.770;2023-06-22T02:34:55;0.22;;;0.22;;
30763;SDS011;17497;51.476;7.770;2023-06-22T02:37:22;0.20;;;0.20;;
30763;SDS011;17497;51.476;7.770;2023-06-22T02:39:51;0.30;;;0.30;;
30763;SDS011;17497;51.476;7.770;2023-06-22T02:42:18;0.30;;;0.30;;
30763;SDS011;17497;51.476;7.770;2023-06-22T02:44:47;0.30;;;0.30;;
30763;SDS011;17497;51.476;7.770;2023-06-22T02:47:15;0.30;;;0.30;;
30763;SDS011;17497;51.476;7.770;2023-06-22T02:49:42;0.30;;;0.30;;
30763;SDS011;17497;51.476;7.770;2023-06-22T02:52:11;0.20;;;0.20;;
30763;SDS011;17497;51.476;7.770;2023-06-22T02:54:37;0.30;;;0.30;;
30763;SDS011;17497;51.476;7.770;2023-06-22T02:57:04;0.20;;;0.20;;
30763;SDS011;17497;51.476;7.770;2023-06-22T02:59:31;0.30;;;0.30;;
30763;SDS011;17497;51.476;7.770;2023-06-22T03:01:59;0.30;;;0.30;;
30763;SDS011;17497;51.476;7.770;2023-06-22T03:04:27;0.20;;;0.20;;
30763;SDS011;17497;51.476;7.770;2023-06-22T03:06:55;0.20;;;0.20;;
30763;SDS011;17497;51.476;7.770;2023-06-22T03:09:22;0.30;;;0.30;;
30763;SDS011;17497;51.476;7.770;2023-06-22T03:11:49;0.30;;;0.30;;
30763;SDS011;17497;51.476;7.770;2023-06-22T03:14:16;0.30;;;0.30;;
30763;SDS011;17497;51.476;7.770;2023-06-22T03:16:43;0.30;;;0.30;;
30763;SDS011;17497;51.476;7.770;2023-06-22T03:19:10;0.30;;;0.30;;
30763;SDS011;17497;51.476;7.770;2023-06-22T03:21:37;0.30;;;0.30;;
30763;SDS011;17497;51.476;7.770;2023-06-22T03:24:05;0.30;;;0.30;;
30763;SDS011;17497;51.476;7.770;2023-06-22T03:29:00;0.20;;;0.20;;
30763;SDS011;17497;51.476;7.770;2023-06-22T03:31:27;0.28;;;0.28;;
30763;SDS011;17497;51.476;7.770;2023-06-22T03:33:54;0.30;;;0.30;;
30763;SDS011;17497;51.476;7.770;2023-06-22T03:38:49;0.30;;;0.30;;
30763;SDS011;17497;51.476;7.770;2023-06-22T03:43:43;0.20;;;0.20;;
30763;SDS011;17497;51.476;7.770;2023-06-22T03:46:10;0.30;;;0.30;;
30763;SDS011;17497;51.476;7.770;2023-06-22T03:48:37;0.30;;;0.30;;
30763;SDS011;17497;51.476;7.770;2023-06-22T03:51:04;0.30;;;0.30;;
30763;SDS011;17497;51.476;7.770;2023-06-22T03:53:31;0.28;;;0.28;;
30763;SDS011;17497;51.476;7.770;2023-06-22T03:55:58;0.30;;;0.30;;
30763;SDS011;17497;51.476;7.770;2023-06-22T03:58:25;0.30;;;0.30;;
30763;SDS011;17497;51.476;7.770;2023-06-22T04:00:52;0.30;;;0.30;;
30763;SDS011;17497;51.476;7.770;2023-06-22T04:03:19;0.20;;;0.20;;
30763;SDS011;17497;51.476;7.770;2023-06-22T04:05:47;0.30;;;0.30;;
30763;SDS011;17497;51.476;7.770;2023-06-22T04:10:41;0.20;;;0.20;;
30763;SDS011;17497;51.476;7.770;2023-06-22T04:13:08;0.30;;;0.30;;
30763;SDS011;17497;51.476;7.770;2023-06-22T04:15:35;0.30;;;0.30;;
30763;SDS011;17497;51.476;7.770;2023-06-22T04:18:02;0.30;;;0.30;;
30763;SDS011;17497;51.476;7.770;2023-06-22T04:20:30;0.20;;;0.20;;
30763;SDS011;17497;51.476;7.770;2023-06-22T04:22:58;0.30;;;0.30;;
30763;SDS011;17497;51.476;7.770;2023-06-22T04:25:25;0.30;;;0.30;;
30763;SDS011;17497;51.476;7.770;2023-06-22T04:27:52;0.30;;;0.30;;
30763;SDS011;17497;51.476;7.770;2023-06-22T04:30:19;0.30;;;0.30;;
30763;SDS011;17497;51.476;7.770;2023-06-22T04:32:46;0.30;;;0.30;;
30763;SDS011;17497;51.476;7.770;2023-06-22T04:35:22;0.20;;;0.20;;
30763;SDS011;17497;51.476;7.770;2023-06-22T04:40:21;0.30;;;0.30;;
30763;SDS011;17497;51.476;7.770;2023-06-22T04:42:49;0.30;;;0.30;;
30763;SDS011;17497;51.476;7.770;2023-06-22T05:09:23;0.30;;;0.30;;
30763;SDS011;17497;51.476;7.770;2023-06-22T05:11:51;0.30;;;0.30;;
30763;SDS011;17497;51.476;7.770;2023-06-22T05:14:18;0.30;;;0.30;;
30763;SDS011;17497;51.476;7.770;2023-06-22T05:16:45;0.40;;;0.40;;
30763;SDS011;17497;51.476;7.770;2023-06-22T05:19:12;0.30;;;0.30;;
30763;SDS011;17497;51.476;7.770;2023-06-22T05:21:39;0.30;;;0.30;;
30763;SDS011;17497;51.476;7.770;2023-06-22T05:24:06;0.30;;;0.30;;
30763;SDS011;17497;51.476;7.770;2023-06-22T05:26:34;0.30;;;0.30;;
30763;SDS011;17497;51.476;7.770;2023-06-22T05:29:01;0.40;;;0.40;;
30763;SDS011;17497;51.476;7.770;2023-06-22T05:33:56;0.40;;;0.40;;
30763;SDS011;17497;51.476;7.770;2023-06-22T05:36:23;0.40;;;0.40;;
30763;SDS011;17497;51.476;7.770;2023-06-22T05:38:51;0.40;;;0.40;;
30763;SDS011;17497;51.476;7.770;2023-06-22T05:41:19;0.40;;;0.40;;
30763;SDS011;17497;51.476;7.770;2023-06-22T05:43:45;0.40;;;0.40;;
30763;SDS011;17497;51.476;7.770;2023-06-22T05:46:12;0.40;;;0.40;;
30763;SDS011;17497;51.476;7.770;2023-06-22T05:48:39;0.40;;;0.40;;
30763;SDS011;17497;51.476;7.770;2023-06-22T05:51:06;0.30;;;0.30;;
30763;SDS011;17497;51.476;7.770;2023-06-22T05:53:33;0.30;;;0.30;;
30763;SDS011;17497;51.476;7.770;2023-06-22T05:56:00;0.40;;;0.40;;
30763;SDS011;17497;51.476;7.770;2023-06-22T05:58:26;0.30;;;0.30;;
30763;SDS011;17497;51.476;7.770;2023-06-22T06:00:53;0.30;;;0.30;;
30763;SDS011;17497;51.476;7.770;2023-06-22T06:03:20;0.30;;;0.30;;
30763;SDS011;17497;51.476;7.770;2023-06-22T06:05:47;0.30;;;0.30;;
30763;SDS011;17497;51.476;7.770;2023-06-22T06:08:14;0.30;;;0.30;;
30763;SDS011;17497;51.476;7.770;2023-06-22T06:10:41;0.32;;;0.32;;
30763;SDS011;17497;51.476;7.770;2023-06-22T06:13:08;0.30;;;0.30;;
30763;SDS011;17497;51.476;7.770;2023-06-22T06:15:35;0.30;;;0.30;;
30763;SDS011;17497;51.476;7.770;2023-06-22T06:18:01;0.30;;;0.30;;
30763;SDS011;17497;51.476;7.770;2023-06-22T06:20:32;0.30;;;0.30;;
30763;SDS011;17497;51.476;7.770;2023-06-22T06:22:59;0.30;;;0.30;;
30763;SDS011;17497;51.476;7.770;2023-06-22T06:25:26;0.30;;;0.30;;
30763;SDS011;17497;51.476;7.770;2023-06-22T06:27:53;0.40;;;0.40;;
30763;SDS011;17497;51.476;7.770;2023-06-22T06:30:21;0.32;;;0.32;;
30763;SDS011;17497;51.476;7.770;2023-06-22T06:32:49;0.30;;;0.30;;
30763;SDS011;17497;51.476;7.770;2023-06-22T06:35:17;0.30;;;0.30;;
30763;SDS011;17497;51.476;7.770;2023-06-22T06:37:45;0.30;;;0.30;;
30763;SDS011;17497;51.476;7.770;2023-06-22T06:40:15;0.30;;;0.30;;
30763;SDS011;17497;51.476;7.770;2023-06-22T06:42:47;0.30;;;0.30;;
30763;SDS011;17497;51.476;7.770;2023-06-22T06:45:18;0.32;;;0.32;;
30763;SDS011;17497;51.476;7.770;2023-06-22T06:47:49;0.30;;;0.30;;
30763;SDS011;17497;51.476;7.770;2023-06-22T06:50:20;0.30;;;0.30;;
30763;SDS011;17497;51.476;7.770;2023-06-22T06:55:16;0.30;;;0.30;;
30763;SDS011;17497;51.476;7.770;2023-06-22T06:57:43;0.30;;;0.30;;
30763;SDS011;17497;51.476;7.770;2023-06-22T07:00:11;0.30;;;0.30;;
30763;SDS011;17497;51.476;7.770;2023-06-22T07:02:43;0.30;;;0.30;;
30763;SDS011;17497;51.476;7.770;2023-06-22T07:05:11;0.30;;;0.30;;
30763;SDS011;17497;51.476;7.770;2023-06-22T07:10:07;0.30;;;0.30;;
30763;SDS011;17497;51.476;7.770;2023-06-22T07:12:34;0.30;;;0.30;;
30763;SDS011;17497;51.476;7.770;2023-06-22T07:15:02;0.30;;;0.30;;
30763;SDS011;17497;51.476;7.770;2023-06-22T07:17:31;0.30;;;0.30;;
30763;SDS011;17497;51.476;7.770;2023-06-22T07:19:58;0.30;;;0.30;;
30763;SDS011;17497;51.476;7.770;2023-06-22T07:22:25;0.30;;;0.30;;
30763;SDS011;17497;51.476;7.770;2023-06-22T07:24:52;0.30;;;0.30;;
30763;SDS011;17497;51.476;7.770;2023-06-22T07:27:18;0.32;;;0.32;;
30763;SDS011;17497;51.476;7.770;2023-06-22T07:29:46;0.30;;;0.30;;
30763;SDS011;17497;51.476;7.770;2023-06-22T07:32:13;0.20;;;0.20;;
30763;SDS011;17497;51.476;7.770;2023-06-22T07:34:39;0.30;;;0.30;;
30763;SDS011;17497;51.476;7.770;2023-06-22T07:39:34;0.30;;;0.30;;
30763;SDS011;17497;51.476;7.770;2023-06-22T07:42:01;0.20;;;0.20;;
30763;SDS011;17497;51.476;7.770;2023-06-22T07:44:30;0.30;;;0.30;;
30763;SDS011;17497;51.476;7.770;2023-06-22T07:46:57;0.30;;;0.30;;
30763;SDS011;17497;51.476;7.770;2023-06-22T07:49:24;0.30;;;0.30;;
30763;SDS011;17497;51.476;7.770;2023-06-22T07:51:51;0.28;;;0.28;;
30763;SDS011;17497;51.476;7.770;2023-06-22T07:54:18;0.28;;;0.28;;
30763;SDS011;17497;51.476;7.770;2023-06-22T07:56:46;0.30;;;0.30;;
30763;SDS011;17497;51.476;7.770;2023-06-22T08:01:39;0.30;;;0.30;;
30763;SDS011;17497;51.476;7.770;2023-06-22T08:04:06;0.30;;;0.30;;
30763;SDS011;17497;51.476;7.770;2023-06-22T08:06:33;0.27;;;0.27;;
30763;SDS011;17497;51.476;7.770;2023-06-22T08:09:00;0.30;;;0.30;;
30763;SDS011;17497;51.476;7.770;2023-06-22T08:11:26;0.30;;;0.30;;
30763;SDS011;17497;51.476;7.770;2023-06-22T08:16:22;0.30;;;0.30;;
30763;SDS011;17497;51.476;7.770;2023-06-22T08:18:48;0.25;;;0.25;;
30763;SDS011;17497;51.476;7.770;2023-06-22T08:21:18;0.30;;;0.30;;
30763;SDS011;17497;51.476;7.770;2023-06-22T08:23:45;0.30;;;0.30;;
30763;SDS011;17497;51.476;7.770;2023-06-22T08:26:12;0.30;;;0.30;;
30763;SDS011;17497;51.476;7.770;2023-06-22T08:28:39;0.20;;;0.20;;
30763;SDS011;17497;51.476;7.770;2023-06-22T08:31:05;0.20;;;0.20;;
30763;SDS011;17497;51.476;7.770;2023-06-22T08:33:32;0.30;;;0.30;;
30763;SDS011;17497;51.476;7.770;2023-06-22T08:35:59;0.30;;;0.30;;
30763;SDS011;17497;51.476;7.770;2023-06-22T08:38:26;0.30;;;0.30;;
30763;SDS011;17497;51.476;7.770;2023-06-22T08:40:53;0.30;;;0.30;;
30763;SDS011;17497;51.476;7.770;2023-06-22T08:43:20;0.20;;;0.20;;
30763;SDS011;17497;51.476;7.770;2023-06-22T08:45:47;0.30;;;0.30;;
30763;SDS011;17497;51.476;7.770;2023-06-22T08:48:20;0.30;;;0.30;;
30763;SDS011;17497;51.476;7.770;2023-06-22T08:50:47;0.20;;;0.20;;
30763;SDS011;17497;51.476;7.770;2023-06-22T08:53:13;0.30;;;0.30;;
30763;SDS011;17497;51.476;7.770;2023-06-22T08:55:40;0.20;;;0.20;;
30763;SDS011;17497;51.476;7.770;2023-06-22T08:58:07;0.30;;;0.30;;
30763;SDS011;17497;51.476;7.770;2023-06-22T09:00:34;0.20;;;0.20;;
30763;SDS011;17497;51.476;7.770;2023-06-22T09:03:01;0.30;;;0.30;;
30763;SDS011;17497;51.476;7.770;2023-06-22T09:05:28;0.20;;;0.20;;
30763;SDS011;17497;51.476;7.770;2023-06-22T09:07:56;0.30;;;0.30;;
30763;SDS011;17497;51.476;7.770;2023-06-22T09:10:25;0.20;;;0.20;;
30763;SDS011;17497;51.476;7.770;2023-06-22T09:12:52;0.30;;;0.30;;
30763;SDS011;17497;51.476;7.770;2023-06-22T09:15:18;0.20;;;0.20;;
30763;SDS011;17497;51.476;7.770;2023-06-22T09:17:45;0.20;;;0.20;;
30763;SDS011;17497;51.476;7.770;2023-06-22T09:22:40;0.20;;;0.20;;
30763;SDS011;17497;51.476;7.770;2023-06-22T09:25:07;0.30;;;0.30;;
30763;SDS011;17497;51.476;7.770;2023-06-22T09:27:34;0.30;;;0.30;;
30763;SDS011;17497;51.476;7.770;2023-06-22T09:30:00;0.30;;;0.30;;
30763;SDS011;17497;51.476;7.770;2023-06-22T09:32:29;0.25;;;0.25;;
30763;SDS011;17497;51.476;7.770;2023-06-22T09:34:55;0.30;;;0.30;;
30763;SDS011;17497;51.476;7.770;2023-06-22T09:37:22;0.20;;;0.20;;
30763;SDS011;17497;51.476;7.770;2023-06-22T09:39:49;0.20;;;0.20;;
30763;SDS011;17497;51.476;7.770;2023-06-22T09:42:16;0.30;;;0.30;;
30763;SDS011;17497;51.476;7.770;2023-06-22T09:44:43;0.30;;;0.30;;
30763;SDS011;17497;51.476;7.770;2023-06-22T09:47:10;0.23;;;0.23;;
30763;SDS011;17497;51.476;7.770;2023-06-22T09:49:36;0.30;;;0.30;;
30763;SDS011;17497;51.476;7.770;2023-06-22T09:52:13;0.20;;;0.20;;
30763;SDS011;17497;51.476;7.770;2023-06-22T09:54:40;0.23;;;0.23;;
30763;SDS011;17497;51.476;7.770;2023-06-22T09:57:07;0.20;;;0.20;;
30763;SDS011;17497;51.476;7.770;2023-06-22T09:59:34;0.20;;;0.20;;
30763;SDS011;17497;51.476;7.770;2023-06-22T10:02:01;0.30;;;0.30;;
30763;SDS011;17497;51.476;7.770;2023-06-22T10:04:27;0.27;;;0.27;;
30763;SDS011;17497;51.476;7.770;2023-06-22T10:09:22;0.20;;;0.20;;
30763;SDS011;17497;51.476;7.770;2023-06-22T10:11:48;0.30;;;0.30;;
30763;SDS011;17497;51.476;7.770;2023-06-22T10:14:15;0.30;;;0.30;;
30763;SDS011;17497;51.476;7.770;2023-06-22T10:19:09;0.28;;;0.28;;
30763;SDS011;17497;51.476;7.770;2023-06-22T10:21:36;0.20;;;0.20;;
30763;SDS011;17497;51.476;7.770;2023-06-22T10:24:03;0.20;;;0.20;;
30763;SDS011;17497;51.476;7.770;2023-06-22T10:26:33;0.20;;;0.20;;
30763;SDS011;17497;51.476;7.770;2023-06-22T10:29:00;0.20;;;0.20;;
30763;SDS011;17497;51.476;7.770;2023-06-22T10:31:42;0.20;;;0.20;;
30763;SDS011;17497;51.476;7.770;2023-06-22T10:34:24;0.20;;;0.20;;
30763;SDS011;17497;51.476;7.770;2023-06-22T10:36:51;0.20;;;0.20;;
30763;SDS011;17497;51.476;7.770;2023-06-22T10:39:18;0.20;;;0.20;;
30763;SDS011;17497;51.476;7.770;2023-06-22T10:41:45;0.30;;;0.30;;
30763;SDS011;17497;51.476;7.770;2023-06-22T10:44:12;0.20;;;0.20;;
30763;SDS011;17497;51.476;7.770;2023-06-22T10:46:39;0.30;;;0.30;;
30763;SDS011;17497;51.476;7.770;2023-06-22T10:49:06;0.20;;;0.20;;
30763;SDS011;17497;51.476;7.770;2023-06-22T10:51:33;0.20;;;0.20;;
30763;SDS011;17497;51.476;7.770;2023-06-22T10:54:00;0.28;;;0.28;;
30763;SDS011;17497;51.476;7.770;2023-06-22T10:56:27;0.20;;;0.20;;
30763;SDS011;17497;51.476;7.770;2023-06-22T10:58:54;0.30;;;0.30;;
30763;SDS011;17497;51.476;7.770;2023-06-22T11:01:21;0.20;;;0.20;;
30763;SDS011;17497;51.476;7.770;2023-06-22T11:03:51;0.28;;;0.28;;
30763;SDS011;17497;51.476;7.770;2023-06-22T11:06:18;0.20;;;0.20;;
30763;SDS011;17497;51.476;7.770;2023-06-22T11:08:48;0.20;;;0.20;;
30763;SDS011;17497;51.476;7.770;2023-06-22T11:11:32;0.30;;;0.30;;
30763;SDS011;17497;51.476;7.770;2023-06-22T11:13:59;0.20;;;0.20;;
30763;SDS011;17497;51.476;7.770;2023-06-22T11:16:26;0.25;;;0.25;;
30763;SDS011;17497;51.476;7.770;2023-06-22T11:18:54;0.20;;;0.20;;
30763;SDS011;17497;51.476;7.770;2023-06-22T11:21:21;0.22;;;0.22;;
30763;SDS011;17497;51.476;7.770;2023-06-22T11:23:48;0.20;;;0.20;;
30763;SDS011;17497;51.476;7.770;2023-06-22T11:26:16;0.28;;;0.28;;
30763;SDS011;17497;51.476;7.770;2023-06-22T11:28:43;0.20;;;0.20;;
30763;SDS011;17497;51.476;7.770;2023-06-22T11:31:10;0.30;;;0.30;;
30763;SDS011;17497;51.476;7.770;2023-06-22T11:33:51;0.28;;;0.28;;
30763;SDS011;17497;51.476;7.770;2023-06-22T11:36:18;0.30;;;0.30;;
30763;SDS011;17497;51.476;7.770;2023-06-22T11:38:46;0.20;;;0.20;;
30763;SDS011;17497;51.476;7.770;2023-06-22T11:41:13;0.20;;;0.20;;
30763;SDS011;17497;51.476;7.770;2023-06-22T11:43:41;0.20;;;0.20;;
30763;SDS011;17497;51.476;7.770;2023-06-22T11:46:07;0.30;;;0.30;;
30763;SDS011;17497;51.476;7.770;2023-06-22T11:48:36;0.30;;;0.30;;
30763;SDS011;17497;51.476;7.770;2023-06-22T11:51:02;0.30;;;0.30;;
30763;SDS011;17497;51.476;7.770;2023-06-22T11:53:30;0.30;;;0.30;;
30763;SDS011;17497;51.476;7.770;2023-06-22T11:55:56;0.30;;;0.30;;
30763;SDS011;17497;51.476;7.770;2023-06-22T11:58:24;0.20;;;0.20;;
30763;SDS011;17497;51.476;7.770;2023-06-22T12:00:50;0.30;;;0.30;;
30763;SDS011;17497;51.476;7.770;2023-06-22T12:03:19;0.35;;;0.35;;
30763;SDS011;17497;51.476;7.770;2023-06-22T12:05:49;0.25;;;0.25;;
30763;SDS011;17497;51.476;7.770;2023-06-22T12:08:17;0.20;;;0.20;;
30763;SDS011;17497;51.476;7.770;2023-06-22T12:10:44;0.30;;;0.30;;
30763;SDS011;17497;51.476;7.770;2023-06-22T12:13:12;0.20;;;0.20;;
30763;SDS011;17497;51.476;7.770;2023-06-22T12:15:39;0.30;;;0.30;;
30763;SDS011;17497;51.476;7.770;2023-06-22T12:18:06;0.20;;;0.20;;
30763;SDS011;17497;51.476;7.770;2023-06-22T12:20:33;0.30;;;0.30;;
30763;SDS011;17497;51.476;7.770;2023-06-22T12:23:01;0.25;;;0.25;;
30763;SDS011;17497;51.476;7.770;2023-06-22T12:25:27;0.30;;;0.30;;
30763;SDS011;17497;51.476;7.770;2023-06-22T12:27:54;0.30;;;0.30;;
30763;SDS011;17497;51.476;7.770;2023-06-22T12:30:21;0.27;;;0.27;;
30763;SDS011;17497;51.476;7.770;2023-06-22T12:32:48;0.30;;;0.30;;
30763;SDS011;17497;51.476;7.770;2023-06-22T12:35:18;0.30;;;0.30;;
30763;SDS011;17497;51.476;7.770;2023-06-22T12:37:45;0.30;;;0.30;;
30763;SDS011;17497;51.476;7.770;2023-06-22T12:40:12;0.30;;;0.30;;
30763;SDS011;17497;51.476;7.770;2023-06-22T12:42:41;0.40;;;0.40;;
30763;SDS011;17497;51.476;7.770;2023-06-22T12:45:08;0.40;;;0.40;;
30763;SDS011;17497;51.476;7.770;2023-06-22T12:47:36;0.40;;;0.40;;
30763;SDS011;17497;51.476;7.770;2023-06-22T12:50:06;0.40;;;0.40;;
30763;SDS011;17497;51.476;7.770;2023-06-22T12:52:33;0.60;;;0.60;;
30763;SDS011;17497;51.476;7.770;2023-06-22T12:55:03;0.50;;;0.50;;
30763;SDS011;17497;51.476;7.770;2023-06-22T12:57:29;0.50;;;0.50;;
30763;SDS011;17497;51.476;7.770;2023-06-22T12:59:56;0.57;;;0.57;;
30763;SDS011;17497;51.476;7.770;2023-06-22T13:02:24;0.50;;;0.50;;
30763;SDS011;17497;51.476;7.770;2023-06-22T13:04:51;0.50;;;0.50;;
30763;SDS011;17497;51.476;7.770;2023-06-22T13:07:18;0.50;;;0.50;;
30763;SDS011;17497;51.476;7.770;2023-06-22T13:09:49;0.50;;;0.50;;
30763;SDS011;17497;51.476;7.770;2023-06-22T13:12:20;0.60;;;0.60;;
30763;SDS011;17497;51.476;7.770;2023-06-22T13:14:47;0.60;;;0.60;;
30763;SDS011;17497;51.476;7.770;2023-06-22T13:19:42;0.60;;;0.60;;
30763;SDS011;17497;51.476;7.770;2023-06-22T13:22:25;0.50;;;0.50;;
30763;SDS011;17497;51.476;7.770;2023-06-22T13:24:55;0.50;;;0.50;;
30763;SDS011;17497;51.476;7.770;2023-06-22T13:27:22;0.60;;;0.60;;
30763;SDS011;17497;51.476;7.770;2023-06-22T13:29:49;0.60;;;0.60;;
30763;SDS011;17497;51.476;7.770;2023-06-22T13:32:17;0.57;;;0.57;;
30763;SDS011;17497;51.476;7.770;2023-06-22T13:34:43;0.50;;;0.50;;
30763;SDS011;17497;51.476;7.770;2023-06-22T13:37:10;0.50;;;0.50;;
30763;SDS011;17497;51.476;7.770;2023-06-22T13:39:37;0.50;;;0.50;;
30763;SDS011;17497;51.476;7.770;2023-06-22T13:42:04;0.50;;;0.50;;
30763;SDS011;17497;51.476;7.770;2023-06-22T13:44:31;0.50;;;0.50;;
30763;SDS011;17497;51.476;7.770;2023-06-22T13:46:58;0.50;;;0.50;;
30763;SDS011;17497;51.476;7.770;2023-06-22T13:49:25;0.50;;;0.50;;
30763;SDS011;17497;51.476;7.770;2023-06-22T13:51:52;0.40;;;0.40;;
30763;SDS011;17497;51.476;7.770;2023-06-22T13:54:19;0.32;;;0.32;;
30763;SDS011;17497;51.476;7.770;2023-06-22T13:56:49;0.30;;;0.30;;
30763;SDS011;17497;51.476;7.770;2023-06-22T13:59:16;0.30;;;0.30;;
30763;SDS011;17497;51.476;7.770;2023-06-22T14:01:42;0.30;;;0.30;;
30763;SDS011;17497;51.476;7.770;2023-06-22T14:04:10;0.30;;;0.30;;
30763;SDS011;17497;51.476;7.770;2023-06-22T14:06:37;0.28;;;0.28;;
30763;SDS011;17497;51.476;7.770;2023-06-22T14:09:05;0.22;;;0.22;;
30763;SDS011;17497;51.476;7.770;2023-06-22T14:11:32;0.30;;;0.30;;
30763;SDS011;17497;51.476;7.770;2023-06-22T14:13:58;0.30;;;0.30;;
30763;SDS011;17497;51.476;7.770;2023-06-22T14:16:25;0.20;;;0.20;;
30763;SDS011;17497;51.476;7.770;2023-06-22T14:18:52;0.30;;;0.30;;
30763;SDS011;17497;51.476;7.770;2023-06-22T14:21:22;0.28;;;0.28;;
30763;SDS011;17497;51.476;7.770;2023-06-22T14:23:49;0.30;;;0.30;;
30763;SDS011;17497;51.476;7.770;2023-06-22T14:26:16;0.28;;;0.28;;
30763;SDS011;17497;51.476;7.770;2023-06-22T14:28:46;0.20;;;0.20;;
30763;SDS011;17497;51.476;7.770;2023-06-22T14:31:16;0.30;;;0.30;;
30763;SDS011;17497;51.476;7.770;2023-06-22T14:33:45;0.30;;;0.30;;
30763;SDS011;17497;51.476;7.770;2023-06-22T14:36:13;0.30;;;0.30;;
30763;SDS011;17497;51.476;7.770;2023-06-22T14:38:42;0.20;;;0.20;;
30763;SDS011;17497;51.476;7.770;2023-06-22T14:41:09;0.20;;;0.20;;
30763;SDS011;17497;51.476;7.770;2023-06-22T14:43:47;0.25;;;0.25;;
30763;SDS011;17497;51.476;7.770;2023-06-22T14:46:14;0.20;;;0.20;;
30763;SDS011;17497;51.476;7.770;2023-06-22T14:48:42;0.20;;;0.20;;
30763;SDS011;17497;51.476;7.770;2023-06-22T14:51:09;0.20;;;0.20;;
30763;SDS011;17497;51.476;7.770;2023-06-22T14:53:42;0.20;;;0.20;;
30763;SDS011;17497;51.476;7.770;2023-06-22T14:56:10;0.20;;;0.20;;
30763;SDS011;17497;51.476;7.770;2023-06-22T14:58:39;0.30;;;0.30;;
30763;SDS011;17497;51.476;7.770;2023-06-22T15:01:07;0.30;;;0.30;;
30763;SDS011;17497;51.476;7.770;2023-06-22T15:03:34;0.30;;;0.30;;
30763;SDS011;17497;51.476;7.770;2023-06-22T15:06:03;0.20;;;0.20;;
30763;SDS011;17497;51.476;7.770;2023-06-22T15:08:30;0.20;;;0.20;;
30763;SDS011;17497;51.476;7.770;2023-06-22T15:11:00;0.22;;;0.22;;
30763;SDS011;17497;51.476;7.770;2023-06-22T15:13:29;0.30;;;0.30;;
30763;SDS011;17497;51.476;7.770;2023-06-22T15:16:00;0.20;;;0.20;;
30763;SDS011;17497;51.476;7.770;2023-06-22T15:18:30;0.20;;;0.20;;
30763;SDS011;17497;51.476;7.770;2023-06-22T15:20:57;0.28;;;0.28;;
30763;SDS011;17497;51.476;7.770;2023-06-22T15:23:28;0.30;;;0.30;;
30763;SDS011;17497;51.476;7.770;2023-06-22T15:26:01;0.30;;;0.30;;
30763;SDS011;17497;51.476;7.770;2023-06-22T15:28:29;0.30;;;0.30;;
30763;SDS011;17497;51.476;7.770;2023-06-22T15:30:56;0.30;;;0.30;;
30763;SDS011;17497;51.476;7.770;2023-06-22T15:33:24;0.30;;;0.30;;
30763;SDS011;17497;51.476;7.770;2023-06-22T15:35:59;0.30;;;0.30;;
30763;SDS011;17497;51.476;7.770;2023-06-22T15:38:55;0.30;;;0.30;;
30763;SDS011;17497;51.476;7.770;2023-06-22T15:41:26;0.30;;;0.30;;
30763;SDS011;17497;51.476;7.770;2023-06-22T15:43:54;0.30;;;0.30;;
30763;SDS011;17497;51.476;7.770;2023-06-22T15:48:50;0.20;;;0.20;;
30763;SDS011;17497;51.476;7.770;2023-06-22T15:51:20;0.30;;;0.30;;
30763;SDS011;17497;51.476;7.770;2023-06-22T15:53:46;0.30;;;0.30;;
30763;SDS011;17497;51.476;7.770;2023-06-22T15:56:13;0.30;;;0.30;;
30763;SDS011;17497;51.476;7.770;2023-06-22T15:58:40;0.30;;;0.30;;
30763;SDS011;17497;51.476;7.770;2023-06-22T16:01:07;0.30;;;0.30;;
30763;SDS011;17497;51.476;7.770;2023-06-22T16:03:37;0.30;;;0.30;;
30763;SDS011;17497;51.476;7.770;2023-06-22T16:06:05;0.30;;;0.30;;
30763;SDS011;17497;51.476;7.770;2023-06-22T16:13:42;0.40;;;0.40;;